Terminal Aerodrome Forecast
Issued by NWS

Home | Current Version | Previous Version | Text Only | Print | Product List | Glossary On
Versions: 1 2 3 4 5 6 7 8 9 10 11 12 13 14
000
FTUS45 KGJT 191324 AAA
TAFEGE
TAF AMD
KEGE 191324Z 1913/2012 24020G27KT P6SM VCSH BKN060 BKN070
      TEMPO 1913/1916 3SM -SHSN BR OVC025
     FM191600 23022G34KT P6SM VCSH SCT030 OVC090
     FM192000 24023G37KT P6SM VCSH SCT035 OVC060
     FM192300 24016G27KT 1 1/2SM -SHSNRA SCT035 OVC040
     FM200600 22008KT P6SM SCT035 BKN040
      AMD LTD TO CLD VIS AND WIND TIL 191400=

USA.gov is the U.S. government's official web portal to all federal, state and local government web resources and services.